Terminal Aerodrome Forecast
Issued by NWS Cleveland, OH

Home | Current Version | Previous Version | Graphics & Text | Print | Product List | Glossary On
Versions: 1 2 3 4 5 6 7 8 9 10 11 12 13 14 15 16 17
000
FTUS41 KCLE 090500
TAFMFD
TAF
KMFD 090532Z 0906/1006 23005KT P6SM BKN070
     FM090900 25005KT 5SM BR BKN030
      TEMPO 0910/0912 2SM BR
     FM091400 28010KT P6SM BKN040
     FM092200 30008KT P6SM SCT040=

USA.gov is the U.S. government's official web portal to all federal, state and local government web resources and services.